Air Resources Laboratory banner image
Air Resources Laboratory web site National Oceanic and Atmospheric Administration (NOAA)

pr metar


TJSJ 201056Z 06018G23KT 10SM FEW024 SCT031 SCT039 24/20 A3015 RMK AO2 SLP210
 VCSH SE-SW T02440200=
TJSJ 201056Z 06018G23KT 10SM FEW024 SCT031 SCT039 24/20 A3015=